Time;durP1;ratioP1;P1;durP2;ratioP2;P2;SDS_P1;SDS_P2;PMS_P1;PMS_P2;Temp;Humidity;BMP_temperature;BMP_pressure;BME280_temperature;BME280_humidity;BME280_pressure;Samples;Min_cycle;Max_cycle;Signal;HPM_P1;HPM_P2
2023/11/11 00:00:46;;;;;;;5.70;1.60;;;;;;;12.30;64.60;100409.48;107601;1252;96374;-62
2023/11/11 00:03:34;;;;;;;3.50;0.90;;;;;;;12.34;64.81;100404.16;107646;1255;96545;-62
2023/11/11 00:06:04;;;;;;;4.10;1.20;;;;;;;12.41;64.94;100404.08;107535;1253;110724;-63
2023/11/11 00:08:35;;;;;;;8.50;1.20;;;;;;;12.45;64.78;100404.15;107600;1252;109989;-62
2023/11/11 00:11:05;;;;;;;5.00;1.10;;;;;;;12.46;64.65;100400.85;107558;1255;109197;-62
2023/11/11 00:13:33;;;;;;;4.00;1.20;;;;;;;12.44;64.19;100393.31;107620;1251;96493;-61
2023/11/11 00:16:02;;;;;;;3.90;1.20;;;;;;;12.38;64.03;100390.64;107562;1255;96588;-62
2023/11/11 00:18:30;;;;;;;12.50;1.10;;;;;;;12.33;63.97;100387.01;107631;1255;111312;-62
2023/11/11 00:21:00;;;;;;;7.00;1.40;;;;;;;12.33;64.07;100376.24;107625;1251;109260;-62
2023/11/11 00:23:30;;;;;;;3.50;1.10;;;;;;;12.34;64.14;100372.40;107583;1251;107491;-62
2023/11/11 00:25:59;;;;;;;4.30;1.20;;;;;;;12.35;64.76;100364.33;107550;1252;96489;-62
2023/11/11 00:28:28;;;;;;;6.50;1.40;;;;;;;12.41;65.48;100362.67;107636;1252;96485;-62
2023/11/11 00:30:56;;;;;;;10.10;1.80;;;;;;;12.46;65.50;100361.64;107672;1251;110067;-62
2023/11/11 00:33:25;;;;;;;3.60;1.10;;;;;;;12.49;65.80;100357.85;107689;1250;109180;-62
2023/11/11 00:35:53;;;;;;;7.10;1.90;;;;;;;12.53;65.77;100350.65;107609;1251;108278;-63
2023/11/11 00:38:21;;;;;;;6.40;1.20;;;;;;;12.55;65.85;100343.78;107481;1254;96584;-62
2023/11/11 00:40:50;;;;;;;6.60;1.30;;;;;;;12.57;65.58;100336.20;107619;1253;96581;-63
2023/11/11 00:43:18;;;;;;;5.40;1.60;;;;;;;12.57;65.61;100333.73;107621;1255;110882;-62
2023/11/11 00:45:46;;;;;;;9.10;1.10;;;;;;;12.57;65.71;100332.66;107597;1251;109575;-63
2023/11/11 00:48:15;;;;;;;7.20;1.50;;;;;;;12.56;65.53;100328.02;107540;1253;107704;-62
2023/11/11 00:50:43;;;;;;;4.60;1.20;;;;;;;12.57;65.86;100328.98;107592;1256;96472;-64
2023/11/11 00:53:12;;;;;;;1.80;0.90;;;;;;;12.58;65.88;100322.42;107608;1253;96363;-62
2023/11/11 00:55:40;;;;;;;4.10;1.00;;;;;;;12.60;65.99;100313.61;107634;1253;110175;-62
2023/11/11 00:58:09;;;;;;;6.70;1.60;;;;;;;12.61;65.85;100313.28;107573;1253;109300;-63
2023/11/11 01:00:42;;;;;;;5.30;1.30;;;;;;;12.63;66.02;100309.82;107481;1253;108679;-61
2023/11/11 01:03:12;;;;;;;7.10;1.00;;;;;;;12.65;66.19;100303.02;107596;1253;97013;-62
2023/11/11 01:05:41;;;;;;;5.10;1.00;;;;;;;12.66;66.07;100299.89;107649;1251;96361;-62
2023/11/11 01:08:09;;;;;;;3.30;0.90;;;;;;;12.66;66.00;100297.52;107579;1254;110401;-62
2023/11/11 01:10:38;;;;;;;2.80;1.20;;;;;;;12.66;65.95;100289.77;107571;1253;110088;-62
2023/11/11 01:13:06;;;;;;;7.50;1.50;;;;;;;12.66;65.97;100282.22;107622;1253;107920;-60
2023/11/11 01:15:37;;;;;;;2.70;0.70;;;;;;;12.66;65.99;100275.34;107677;1254;97126;-64
2023/11/11 01:18:06;;;;;;;6.70;1.40;;;;;;;12.68;65.95;100271.77;107600;1251;97020;-63
2023/11/11 01:20:34;;;;;;;8.20;1.20;;;;;;;12.71;66.09;100260.46;107510;1255;110141;-62
2023/11/11 01:23:03;;;;;;;2.80;1.20;;;;;;;12.68;65.66;100259.12;107535;1251;109387;-63
2023/11/11 01:25:32;;;;;;;3.50;1.10;;;;;;;12.58;65.29;100258.26;107623;1256;107567;-62
2023/11/11 01:28:01;;;;;;;5.50;1.20;;;;;;;12.48;65.13;100257.17;107629;1253;96475;-63
2023/11/11 01:30:29;;;;;;;6.70;1.40;;;;;;;12.40;65.10;100257.43;107671;1251;96345;-62
2023/11/11 01:32:57;;;;;;;4.20;0.90;;;;;;;12.30;65.22;100248.48;107565;1251;110849;-64
2023/11/11 01:35:25;;;;;;;4.60;1.20;;;;;;;12.23;65.42;100240.77;107631;1251;108922;-64
2023/11/11 01:37:53;;;;;;;7.30;1.10;;;;;;;12.19;65.54;100236.39;107564;1251;107261;-62
2023/11/11 01:40:22;;;;;;;1.90;1.10;;;;;;;12.11;65.93;100233.95;107480;1252;97028;-63
2023/11/11 01:42:50;;;;;;;7.20;1.10;;;;;;;12.00;65.73;100229.33;107626;1251;96526;-63
2023/11/11 01:45:19;;;;;;;3.70;1.40;;;;;;;11.93;65.58;100223.60;107638;1254;110923;-62
2023/11/11 01:47:48;;;;;;;5.90;1.60;;;;;;;11.89;65.73;100215.14;107663;1254;109589;-61
2023/11/11 01:50:18;;;;;;;5.20;1.40;;;;;;;11.87;65.83;100213.39;107500;1252;108286;-62
2023/11/11 01:52:47;;;;;;;5.40;1.40;;;;;;;11.85;65.83;100207.51;107532;1254;96602;-64
2023/11/11 01:55:16;;;;;;;8.30;1.50;;;;;;;11.83;65.69;100203.25;107656;1254;96495;-63
2023/11/11 01:57:44;;;;;;;5.80;1.20;;;;;;;11.77;65.75;100196.58;107631;1251;110677;-63
2023/11/11 02:00:14;;;;;;;9.40;1.80;;;;;;;11.70;65.82;100195.52;107649;1251;108196;-63
2023/11/11 02:02:43;;;;;;;4.20;1.50;;;;;;;11.65;65.97;100186.36;107613;1252;109195;-63
2023/11/11 02:05:11;;;;;;;8.80;1.70;;;;;;;11.63;66.76;100177.41;107607;1252;96544;-63
2023/11/11 02:07:40;;;;;;;3.30;1.40;;;;;;;11.56;66.96;100170.54;107569;1253;97007;-61
2023/11/11 02:10:09;;;;;;;5.60;1.40;;;;;;;11.52;66.99;100165.02;107603;1255;109864;-62
2023/11/11 02:12:37;;;;;;;6.50;1.60;;;;;;;11.48;67.01;100159.00;107601;1251;109425;-62
2023/11/11 02:15:11;;;;;;;8.70;2.00;;;;;;;11.47;67.12;100155.48;107637;1251;107275;-63
2023/11/11 02:17:40;;;;;;;3.90;1.20;;;;;;;11.48;67.26;100149.33;107579;1253;96634;-62
2023/11/11 02:20:11;;;;;;;5.10;1.20;;;;;;;11.47;67.92;100140.84;107630;1251;97014;-63
2023/11/11 02:22:41;;;;;;;9.50;1.60;;;;;;;11.43;68.08;100131.30;107688;1256;110804;-62
2023/11/11 02:25:09;;;;;;;5.80;1.10;;;;;;;11.40;69.00;100122.75;107549;1256;108810;-63
2023/11/11 02:27:37;;;;;;;4.00;1.20;;;;;;;11.38;68.71;100119.80;107531;1255;108465;-62
2023/11/11 02:30:11;;;;;;;9.80;2.10;;;;;;;11.38;69.08;100120.70;107625;1256;96457;-63
2023/11/11 02:32:41;;;;;;;3.70;1.60;;;;;;;11.38;69.83;100117.86;107621;1253;96370;-62
2023/11/11 02:35:09;;;;;;;9.90;1.40;;;;;;;11.35;69.37;100113.96;107605;1251;110525;-63
2023/11/11 02:37:37;;;;;;;5.10;1.80;;;;;;;11.37;69.69;100110.34;107594;1255;110066;-63
2023/11/11 02:40:11;;;;;;;4.60;1.80;;;;;;;11.38;69.46;100104.16;107549;1254;107477;-62
2023/11/11 02:42:41;;;;;;;7.80;2.70;;;;;;;11.41;69.73;100098.64;107610;1256;96482;-63
2023/11/11 02:45:10;;;;;;;4.60;1.50;;;;;;;11.42;69.77;100097.28;107392;1251;96617;-63
2023/11/11 02:47:39;;;;;;;9.50;2.00;;;;;;;11.44;69.80;100097.63;107545;1251;109426;-62
2023/11/11 02:50:08;;;;;;;4.40;1.30;;;;;;;11.47;69.66;100095.23;107594;1251;109927;-63
2023/11/11 02:52:37;;;;;;;6.20;1.60;;;;;;;11.49;69.76;100089.91;107603;1251;106651;-63
2023/11/11 02:55:07;;;;;;;6.50;1.20;;;;;;;11.51;69.60;100086.89;107598;1251;96479;-62
2023/11/11 02:57:35;;;;;;;4.70;1.30;;;;;;;11.54;69.68;100081.66;107571;1256;96501;-62
2023/11/11 03:00:10;;;;;;;6.00;1.40;;;;;;;11.57;69.68;100078.14;107620;1250;110751;-62
2023/11/11 03:02:40;;;;;;;5.30;1.70;;;;;;;11.60;69.71;100070.98;107612;1255;108417;-62
2023/11/11 03:05:09;;;;;;;3.10;1.50;;;;;;;11.60;69.48;100068.36;107525;1254;107355;-62
2023/11/11 03:07:37;;;;;;;5.70;1.60;;;;;;;11.59;69.64;100063.21;107582;1254;96553;-63
2023/11/11 03:10:09;;;;;;;8.10;2.00;;;;;;;11.59;69.55;100063.89;107623;1255;96490;-62
2023/11/11 03:12:39;;;;;;;3.80;1.40;;;;;;;11.63;69.90;100056.38;107561;1251;110471;-62
2023/11/11 03:15:08;;;;;;;11.10;2.00;;;;;;;11.63;69.85;100055.28;107572;1256;109937;-62
2023/11/11 03:17:37;;;;;;;5.60;1.70;;;;;;;11.66;69.85;100055.99;107610;1253;108025;-62
2023/11/11 03:20:08;;;;;;;10.20;2.90;;;;;;;11.70;69.96;100052.55;107592;1253;96489;-63
2023/11/11 03:22:37;;;;;;;8.00;2.30;;;;;;;11.73;69.81;100055.65;107590;1253;96452;-63
2023/11/11 03:25:06;;;;;;;8.80;1.60;;;;;;;11.75;69.77;100053.10;107548;1254;110575;-67
2023/11/11 03:27:34;;;;;;;8.10;1.80;;;;;;;11.77;69.80;100050.96;107632;1256;109394;-62
2023/11/11 03:30:03;;;;;;;8.10;1.80;;;;;;;11.77;69.69;100049.55;107518;1256;106874;-62
2023/11/11 03:32:31;;;;;;;6.50;1.60;;;;;;;11.78;69.76;100044.73;107610;1251;96497;-63
2023/11/11 03:35:00;;;;;;;8.70;1.80;;;;;;;11.81;69.79;100039.95;107621;1251;96350;-63
2023/11/11 03:37:28;;;;;;;5.40;1.70;;;;;;;11.81;69.88;100038.86;107590;1253;110003;-63
2023/11/11 03:39:56;;;;;;;11.10;2.00;;;;;;;11.82;69.71;100030.60;107548;1253;109258;-62
2023/11/11 03:42:25;;;;;;;9.50;1.90;;;;;;;11.80;69.67;100022.73;107566;1253;109077;-62
2023/11/11 03:44:53;;;;;;;5.60;1.70;;;;;;;11.79;69.78;100024.15;107555;1255;96501;-62
2023/11/11 03:47:21;;;;;;;7.50;1.70;;;;;;;11.79;69.69;100019.52;107570;1254;96501;-63
2023/11/11 03:49:50;;;;;;;4.30;1.40;;;;;;;11.80;69.85;100018.86;107570;1254;109064;-62
2023/11/11 03:52:19;;;;;;;6.40;1.50;;;;;;;11.81;70.07;100009.95;107434;1254;107992;-63
2023/11/11 03:54:48;;;;;;;4.20;1.50;;;;;;;11.83;70.14;99997.63;107565;1251;108259;-62
2023/11/11 03:57:16;;;;;;;12.10;3.50;;;;;;;11.86;70.21;99988.38;107598;1255;96568;-62
2023/11/11 03:59:46;;;;;;;5.80;1.70;;;;;;;11.88;70.25;99986.73;107550;1254;98229;-63
2023/11/11 04:02:14;;;;;;;3.40;1.40;;;;;;;11.89;70.19;99985.55;107585;1253;110088;-65
2023/11/11 04:04:43;;;;;;;7.10;1.50;;;;;;;11.90;70.58;99980.56;107637;1256;109386;-62
2023/11/11 04:07:13;;;;;;;10.00;1.50;;;;;;;11.94;70.97;99978.09;107413;1254;108394;-63
2023/11/11 04:09:43;;;;;;;12.80;1.60;;;;;;;11.96;70.96;99968.48;107395;1259;96519;-62
2023/11/11 04:12:12;;;;;;;10.50;1.90;;;;;;;11.97;70.78;99962.81;107655;1253;96549;-64
2023/11/11 04:14:40;;;;;;;6.20;2.40;;;;;;;11.99;70.93;99958.11;107641;1251;109316;-64
2023/11/11 04:17:09;;;;;;;11.30;1.90;;;;;;;12.01;70.95;99950.48;107539;1251;109631;-63
2023/11/11 04:19:37;;;;;;;5.80;1.60;;;;;;;12.04;71.13;99944.02;107546;1251;105962;-62
2023/11/11 04:22:06;;;;;;;7.60;2.30;;;;;;;12.07;70.99;99937.65;107659;1251;96578;-61
2023/11/11 04:24:35;;;;;;;6.90;1.90;;;;;;;12.08;70.89;99936.16;107648;1255;96508;-62
2023/11/11 04:27:04;;;;;;;4.90;1.90;;;;;;;12.10;70.86;99933.98;107590;1250;110162;-62
2023/11/11 04:29:33;;;;;;;5.90;2.00;;;;;;;12.12;70.95;99929.42;107532;1251;109825;-62
2023/11/11 04:32:02;;;;;;;19.40;2.30;;;;;;;12.12;70.77;99928.27;107577;1255;107534;-62
2023/11/11 04:34:30;;;;;;;8.50;2.20;;;;;;;12.15;70.73;99923.00;107638;1251;96520;-62
2023/11/11 04:36:59;;;;;;;8.10;1.90;;;;;;;12.16;70.79;99919.95;107628;1253;96374;-63
2023/11/11 04:39:27;;;;;;;6.80;2.10;;;;;;;12.17;70.84;99920.39;107562;1254;109631;-61
2023/11/11 04:41:59;;;;;;;6.70;1.70;;;;;;;12.16;70.96;99923.16;107547;1254;109140;-62
2023/11/11 04:44:28;;;;;;;12.60;2.60;;;;;;;12.15;71.08;99916.95;107614;1251;107840;-63
2023/11/11 04:46:58;;;;;;;8.50;2.50;;;;;;;12.15;71.33;99914.13;107573;1251;96424;-62
2023/11/11 04:49:27;;;;;;;7.60;1.90;;;;;;;12.14;71.30;99913.32;107604;1257;96396;-62
2023/11/11 04:51:56;;;;;;;11.10;2.50;;;;;;;12.15;71.42;99906.58;107623;1253;110652;-62
2023/11/11 04:54:26;;;;;;;9.80;2.00;;;;;;;12.16;71.59;99901.27;107598;1255;111024;-63
2023/11/11 04:56:54;;;;;;;4.10;1.70;;;;;;;12.14;71.60;99906.34;107446;1254;107148;-62
2023/11/11 04:59:23;;;;;;;7.60;1.40;;;;;;;12.14;71.68;99911.73;107597;1256;96510;-62
2023/11/11 05:01:53;;;;;;;4.90;1.90;;;;;;;12.13;71.55;99914.53;107560;1254;96377;-61
2023/11/11 05:04:22;;;;;;;7.90;2.00;;;;;;;12.13;71.57;99910.39;107689;1251;109649;-63
2023/11/11 05:06:51;;;;;;;11.50;2.90;;;;;;;12.13;71.74;99904.48;107576;1256;109708;-63
2023/11/11 05:09:20;;;;;;;10.80;2.30;;;;;;;12.13;71.63;99901.05;107549;1251;107854;-62
2023/11/11 05:11:50;;;;;;;15.60;4.30;;;;;;;12.09;71.63;99900.58;107548;1256;96497;-63
2023/11/11 05:14:19;;;;;;;10.50;2.80;;;;;;;12.09;71.62;99903.14;107615;1254;96654;-63
2023/11/11 05:16:50;;;;;;;16.10;2.70;;;;;;;12.09;71.70;99903.64;107612;1256;108846;-61
2023/11/11 05:19:20;;;;;;;8.00;3.00;;;;;;;12.12;71.82;99906.20;107654;1255;109279;-62
2023/11/11 05:21:48;;;;;;;7.00;2.50;;;;;;;12.14;71.80;99909.55;107602;1254;106891;-62
2023/11/11 05:24:19;;;;;;;10.00;3.30;;;;;;;12.16;71.70;99900.85;107556;1256;96489;-62
2023/11/11 05:26:47;;;;;;;7.30;3.00;;;;;;;12.21;72.09;99902.54;107589;1254;96508;-62
2023/11/11 05:29:15;;;;;;;11.50;3.00;;;;;;;12.26;72.11;99900.55;107548;1254;110461;-60
2023/11/11 05:31:46;;;;;;;15.50;4.60;;;;;;;12.30;71.96;99900.27;107577;1256;109228;-64
2023/11/11 05:34:15;;;;;;;9.80;3.20;;;;;;;12.33;72.02;99901.97;107599;1256;107237;-63
2023/11/11 05:36:43;;;;;;;9.50;3.10;;;;;;;12.35;71.95;99897.95;107586;1251;96478;-62
2023/11/11 05:39:14;;;;;;;17.10;3.60;;;;;;;12.33;72.02;99891.88;107525;1253;97040;-61
2023/11/11 05:41:43;;;;;;;10.50;3.20;;;;;;;12.28;71.71;99892.42;107589;1254;111559;-63
2023/11/11 05:44:11;;;;;;;7.70;1.90;;;;;;;12.26;71.80;99892.42;107612;1251;108976;-61
2023/11/11 05:46:39;;;;;;;12.90;2.60;;;;;;;12.27;71.87;99893.64;107618;1254;107195;-63
2023/11/11 05:49:08;;;;;;;6.90;2.20;;;;;;;12.29;72.08;99892.70;107542;1254;96473;-63
2023/11/11 05:51:36;;;;;;;5.80;2.40;;;;;;;12.31;72.05;99890.88;107616;1256;96590;-62
2023/11/11 05:54:05;;;;;;;18.30;4.20;;;;;;;12.33;72.23;99882.70;107609;1254;109274;-62
2023/11/11 05:56:33;;;;;;;9.10;3.20;;;;;;;12.34;72.01;99884.73;107629;1252;108443;-63
2023/11/11 05:59:03;;;;;;;18.20;3.00;;;;;;;12.35;72.08;99881.27;107539;1251;108328;-63
2023/11/11 06:01:32;;;;;;;12.90;2.50;;;;;;;12.35;72.00;99872.90;107608;1253;96466;-62
2023/11/11 06:04:00;;;;;;;7.20;2.60;;;;;;;12.37;72.15;99872.95;107611;1255;96497;-63
2023/11/11 06:06:29;;;;;;;8.40;2.50;;;;;;;12.36;72.14;99868.35;107610;1251;110057;-63
2023/11/11 06:08:57;;;;;;;14.40;3.30;;;;;;;12.36;72.20;99857.40;107590;1254;109870;-64
2023/11/11 06:11:25;;;;;;;13.20;2.10;;;;;;;12.38;72.35;99857.56;107590;1254;108681;-62
2023/11/11 06:13:57;;;;;;;7.90;2.40;;;;;;;12.37;72.26;99855.61;107572;1256;96480;-63
2023/11/11 06:16:25;;;;;;;9.60;2.90;;;;;;;12.36;72.80;99851.09;107454;1254;97041;-63
2023/11/11 06:18:53;;;;;;;11.50;2.90;;;;;;;12.35;72.91;99849.53;107590;1251;109975;-62
2023/11/11 06:21:23;;;;;;;11.40;2.40;;;;;;;12.39;73.30;99849.34;107562;1254;109609;-62
2023/11/11 06:23:51;;;;;;;14.10;2.50;;;;;;;12.40;73.29;99847.61;107557;1257;108460;-62
2023/11/11 06:26:19;;;;;;;8.40;2.50;;;;;;;12.39;73.50;99839.42;107612;1251;96495;-63
2023/11/11 06:28:51;;;;;;;14.00;2.50;;;;;;;12.37;73.86;99833.30;107658;1251;96414;-63
2023/11/11 06:31:20;;;;;;;8.70;2.20;;;;;;;12.36;73.91;99832.38;107600;1251;110031;-63
2023/11/11 06:33:50;;;;;;;11.00;2.40;;;;;;;12.35;74.27;99830.83;107646;1256;109520;-62
2023/11/11 06:36:18;;;;;;;13.50;3.30;;;;;;;12.37;74.37;99829.75;107648;1256;108870;-62
2023/11/11 06:38:47;;;;;;;9.80;3.40;;;;;;;12.34;74.28;99832.73;107565;1255;96462;-63
2023/11/11 06:41:17;;;;;;;13.40;3.90;;;;;;;12.34;74.53;99827.16;107598;1254;96568;-62
2023/11/11 06:43:46;;;;;;;17.00;5.90;;;;;;;12.36;74.56;99819.30;107573;1254;110081;-62
2023/11/11 06:46:15;;;;;;;13.30;4.40;;;;;;;12.37;74.81;99820.61;107566;1254;109432;-63
2023/11/11 06:48:44;;;;;;;12.50;3.90;;;;;;;12.40;75.82;99823.70;107558;1254;106896;-63
2023/11/11 06:51:13;;;;;;;11.50;3.90;;;;;;;12.37;75.87;99821.86;107608;1254;96508;-63
2023/11/11 06:53:41;;;;;;;9.60;3.80;;;;;;;12.37;75.73;99818.42;107664;1254;97058;-63
2023/11/11 06:56:14;;;;;;;9.90;3.80;;;;;;;12.39;75.94;99815.66;107657;1256;109624;-62
2023/11/11 06:58:43;;;;;;;14.30;4.30;;;;;;;12.39;76.30;99814.23;107600;1251;109915;-62
2023/11/11 07:01:11;;;;;;;14.00;5.40;;;;;;;12.39;76.29;99810.66;107606;1251;106527;-62
2023/11/11 07:03:40;;;;;;;17.00;5.90;;;;;;;12.39;76.24;99804.23;107629;1251;96471;-62
2023/11/11 07:06:10;;;;;;;21.20;6.30;;;;;;;12.40;76.21;99802.61;107685;1256;96603;-62
2023/11/11 07:08:39;;;;;;;16.60;5.10;;;;;;;12.41;76.74;99802.17;107625;1251;110133;-62
2023/11/11 07:11:07;;;;;;;11.90;5.00;;;;;;;12.44;76.72;99794.77;107570;1254;109952;-62
2023/11/11 07:13:36;;;;;;;15.70;5.50;;;;;;;12.51;76.77;99794.61;107562;1257;108857;-62
2023/11/11 07:16:04;;;;;;;12.70;5.50;;;;;;;12.56;76.98;99788.44;107608;1254;96477;-62
2023/11/11 07:18:33;;;;;;;13.80;5.60;;;;;;;12.59;77.12;99784.55;107643;1254;97045;-62
2023/11/11 07:21:02;;;;;;;24.60;6.90;;;;;;;12.60;77.04;99777.92;107594;1254;110652;-63
2023/11/11 07:23:31;;;;;;;21.50;6.20;;;;;;;12.62;77.38;99777.21;107595;1253;108343;-62
2023/11/11 07:25:59;;;;;;;18.50;6.10;;;;;;;12.63;77.12;99769.86;107578;1254;108731;-62
2023/11/11 07:28:27;;;;;;;23.90;10.10;;;;;;;12.66;77.36;99769.10;107602;1255;96474;-63
2023/11/11 07:30:55;;;;;;;19.70;8.40;;;;;;;12.69;77.42;99770.04;107589;1256;96359;-62
2023/11/11 07:33:24;;;;;;;14.10;5.10;;;;;;;12.72;77.38;99772.45;107625;1254;109791;-63
2023/11/11 07:35:52;;;;;;;23.30;6.10;;;;;;;12.75;77.51;99768.46;107618;1255;110122;-62
2023/11/11 07:38:21;;;;;;;12.20;5.50;;;;;;;12.76;77.39;99769.30;107635;1253;108479;-64
2023/11/11 07:40:49;;;;;;;12.70;5.30;;;;;;;12.77;77.64;99770.75;107389;1254;96484;-63
2023/11/11 07:43:17;;;;;;;11.00;5.40;;;;;;;12.80;77.49;99770.05;107612;1253;97149;-63
2023/11/11 07:45:48;;;;;;;12.80;5.70;;;;;;;12.81;77.38;99764.48;107635;1256;110371;-63
2023/11/11 07:48:18;;;;;;;16.70;6.80;;;;;;;12.86;77.32;99767.98;107653;1251;109292;-62
2023/11/11 07:50:47;;;;;;;20.60;7.20;;;;;;;12.89;77.35;99769.68;107621;1251;108727;-63
2023/11/11 07:53:17;;;;;;;17.70;8.10;;;;;;;12.92;77.41;99768.63;107584;1251;96465;-63
2023/11/11 07:55:46;;;;;;;17.60;7.60;;;;;;;12.95;77.32;99771.61;107612;1255;96587;-62
2023/11/11 07:58:14;;;;;;;15.70;7.20;;;;;;;12.99;77.16;99771.36;107633;1251;110170;-62
2023/11/11 08:00:45;;;;;;;11.00;5.50;;;;;;;13.04;77.17;99771.00;107576;1254;111107;-62
2023/11/11 08:03:13;;;;;;;11.70;5.10;;;;;;;13.08;76.93;99769.72;107625;1256;107612;-63
2023/11/11 08:05:42;;;;;;;13.00;5.30;;;;;;;13.13;76.92;99765.73;107580;1254;96366;-62
2023/11/11 08:08:11;;;;;;;15.50;6.20;;;;;;;13.20;76.80;99762.17;107618;1253;96488;-62
2023/11/11 08:10:47;;;;;;;11.60;5.40;;;;;;;13.26;76.87;99756.92;107639;1251;110736;-62
2023/11/11 08:13:15;;;;;;;10.50;4.00;;;;;;;13.29;76.56;99756.33;107625;1256;109095;-64
2023/11/11 08:15:44;;;;;;;12.10;4.10;;;;;;;13.30;76.03;99754.64;107509;1251;108171;-63
2023/11/11 08:18:12;;;;;;;13.30;4.30;;;;;;;13.34;75.88;99753.91;107500;1253;96482;-62
2023/11/11 08:20:42;;;;;;;12.10;4.10;;;;;;;13.38;75.93;99751.89;107525;1251;96490;-61
2023/11/11 08:23:10;;;;;;;10.20;4.10;;;;;;;13.43;75.96;99753.36;107516;1251;109790;-63
2023/11/11 08:25:38;;;;;;;90.40;56.30;;;;;;;13.45;75.73;99747.16;107527;1251;110069;-63
2023/11/11 08:28:07;;;;;;;12.90;4.70;;;;;;;13.45;75.70;99747.47;107446;1251;107025;-62
2023/11/11 08:30:36;;;;;;;7.80;3.90;;;;;;;13.44;75.11;99741.67;107450;1256;97149;-62
2023/11/11 08:33:05;;;;;;;11.70;3.70;;;;;;;13.42;75.27;99744.85;107577;1254;96515;-62
2023/11/11 08:35:35;;;;;;;6.90;3.40;;;;;;;13.40;75.13;99742.08;107561;1252;110536;-62
2023/11/11 08:38:04;;;;;;;9.10;3.70;;;;;;;13.37;75.18;99740.31;107539;1254;109009;-61
2023/11/11 08:40:32;;;;;;;13.50;4.00;;;;;;;13.34;74.94;99736.17;107526;1256;108425;-62
2023/11/11 08:43:00;;;;;;;11.50;4.10;;;;;;;13.32;74.93;99732.77;107519;1253;96479;-62
2023/11/11 08:45:29;;;;;;;12.00;4.20;;;;;;;13.31;75.03;99728.27;107571;1252;96554;-62
2023/11/11 08:47:58;;;;;;;11.90;3.90;;;;;;;13.30;74.92;99724.10;107550;1253;109689;-62
2023/11/11 08:50:26;;;;;;;12.80;4.10;;;;;;;13.29;74.97;99718.92;107558;1253;109862;-62
2023/11/11 08:52:55;;;;;;;12.40;4.40;;;;;;;13.28;74.99;99716.66;107508;1253;110226;-63
2023/11/11 08:55:24;;;;;;;10.90;4.60;;;;;;;13.30;75.00;99713.58;107512;1251;96356;-61
2023/11/11 08:57:53;;;;;;;11.60;5.70;;;;;;;13.34;75.21;99705.41;107338;1253;96523;-63
2023/11/11 09:00:23;;;;;;;11.90;6.00;;;;;;;13.38;75.30;99701.11;107328;1254;109520;-63
2023/11/11 09:02:51;;;;;;;8.70;4.40;;;;;;;13.44;75.39;99698.85;107552;1253;108407;-62
2023/11/11 09:05:20;;;;;;;8.60;3.90;;;;;;;13.48;75.28;99697.13;107554;1251;108480;-63
2023/11/11 09:07:49;;;;;;;6.40;3.40;;;;;;;13.51;75.22;99690.48;107491;1251;96558;-61
2023/11/11 09:10:17;;;;;;;11.20;3.90;;;;;;;13.54;75.33;99683.88;107513;1255;97556;-62
2023/11/11 09:12:48;;;;;;;8.40;4.10;;;;;;;13.58;75.23;99678.95;107514;1253;110185;-62
2023/11/11 09:15:16;;;;;;;16.30;4.90;;;;;;;13.65;75.25;99676.99;107512;1251;109667;-63
2023/11/11 09:17:45;;;;;;;9.80;4.20;;;;;;;13.68;75.11;99671.89;107559;1251;106648;-63
2023/11/11 09:20:14;;;;;;;8.90;4.80;;;;;;;13.69;75.00;99665.42;107494;1253;96482;-64
2023/11/11 09:22:42;;;;;;;8.30;4.40;;;;;;;13.74;75.02;99661.23;107569;1253;96478;-63
2023/11/11 09:25:10;;;;;;;9.00;5.00;;;;;;;13.78;74.98;99657.49;107543;1251;109802;-61
2023/11/11 09:27:39;;;;;;;8.70;5.10;;;;;;;13.82;74.99;99654.60;107491;1251;110143;-61
2023/11/11 09:30:08;;;;;;;11.80;5.90;;;;;;;13.87;75.05;99640.21;107487;1255;107413;-62
2023/11/11 09:32:37;;;;;;;10.80;5.60;;;;;;;13.93;75.16;99634.84;107544;1253;96515;-62
2023/11/11 09:35:07;;;;;;;7.60;5.40;;;;;;;13.99;75.06;99632.47;107525;1251;97051;-62
2023/11/11 09:37:35;;;;;;;9.10;5.90;;;;;;;14.05;75.02;99630.48;107550;1253;109655;-62
2023/11/11 09:40:21;;;;;;;10.80;5.30;;;;;;;14.11;75.03;99629.39;107541;1253;109568;-61
2023/11/11 09:42:49;;;;;;;7.70;5.00;;;;;;;14.20;74.89;99625.34;107512;1251;108345;-62
2023/11/11 09:45:19;;;;;;;9.80;4.80;;;;;;;14.27;74.63;99623.19;107485;1251;96553;-61
2023/11/11 09:47:52;;;;;;;10.70;4.80;;;;;;;14.36;74.50;99616.77;107566;1251;96367;-61
2023/11/11 09:50:24;;;;;;;10.90;5.80;;;;;;;14.45;74.05;99610.30;107599;1251;110064;-61
2023/11/11 09:52:54;;;;;;;10.40;4.90;;;;;;;14.61;73.07;99612.55;107540;1251;108637;-61
2023/11/11 09:55:23;;;;;;;9.70;5.30;;;;;;;14.85;72.66;99609.93;107556;1251;107304;-62
2023/11/11 09:57:52;;;;;;;9.70;4.90;;;;;;;15.14;72.06;99611.49;107498;1251;96481;-62
2023/11/11 10:00:22;;;;;;;9.50;4.30;;;;;;;15.71;71.17;99607.92;107369;1253;96502;-61
2023/11/11 10:02:50;;;;;;;8.70;4.70;;;;;;;16.26;70.23;99594.85;107496;1256;110152;-63
2023/11/11 10:05:20;;;;;;;7.70;4.20;;;;;;;16.52;69.68;99585.66;107533;1251;110029;-62
2023/11/11 10:07:49;;;;;;;12.30;4.30;;;;;;;17.22;68.26;99587.98;107501;1251;107197;-63
2023/11/11 10:10:18;;;;;;;13.20;4.60;;;;;;;17.57;67.05;99582.81;107580;1255;96539;-63
2023/11/11 10:12:47;;;;;;;9.40;4.10;;;;;;;17.80;67.16;99566.82;107240;1252;502999;-63
2023/11/11 10:15:16;;;;;;;9.10;4.20;;;;;;;17.99;64.00;99565.86;107599;1253;109720;-61
2023/11/11 10:17:44;;;;;;;8.10;3.20;;;;;;;17.96;61.95;99568.42;107503;1253;109436;-63
2023/11/11 10:20:13;;;;;;;6.60;3.50;;;;;;;18.27;59.27;99565.42;107536;1251;107538;-63
2023/11/11 10:22:46;;;;;;;6.30;3.00;;;;;;;18.73;59.52;99552.14;107521;1251;96505;-63
2023/11/11 10:25:17;;;;;;;6.10;3.20;;;;;;;19.16;59.89;99549.76;107513;1251;96375;-64
2023/11/11 10:27:52;;;;;;;10.30;3.20;;;;;;;20.00;59.91;99539.92;107574;1255;110721;-63
2023/11/11 10:30:26;;;;;;;4.40;2.60;;;;;;;21.19;54.72;99540.76;107589;1251;109891;-63
2023/11/11 10:32:58;;;;;;;4.40;2.50;;;;;;;22.15;54.72;99516.52;107534;1251;108270;-63
2023/11/11 10:35:26;;;;;;;7.90;3.30;;;;;;;23.03;52.02;99510.79;107638;1251;96487;-63
2023/11/11 10:37:55;;;;;;;4.10;2.30;;;;;;;23.79;48.54;99515.20;107545;1251;96408;-64
2023/11/11 10:40:23;;;;;;;4.70;2.40;;;;;;;24.47;44.68;99520.45;107380;1251;110127;-63
2023/11/11 10:42:52;;;;;;;7.30;2.90;;;;;;;24.64;44.73;99521.96;107582;1251;109719;-63
2023/11/11 10:45:20;;;;;;;5.30;2.30;;;;;;;24.07;43.40;99530.23;107596;1253;107298;-62
2023/11/11 10:47:49;;;;;;;5.90;2.70;;;;;;;23.53;43.17;99540.15;107629;1253;96483;-63
2023/11/11 10:50:18;;;;;;;3.10;2.40;;;;;;;23.22;42.74;99545.05;107571;1253;96570;-63
2023/11/11 10:52:47;;;;;;;6.40;2.70;;;;;;;23.37;43.78;99541.21;107536;1251;109465;-62
2023/11/11 10:55:18;;;;;;;5.60;2.40;;;;;;;24.02;42.43;99546.55;107542;1251;109951;-62
2023/11/11 10:57:47;;;;;;;7.20;2.40;;;;;;;24.50;43.06;99543.31;107437;1253;107829;-62
2023/11/11 11:00:24;;;;;;;4.70;2.40;;;;;;;25.44;41.98;99545.02;107537;1253;96479;-63
2023/11/11 11:02:56;;;;;;;5.00;2.30;;;;;;;26.07;39.67;99543.64;107628;1252;96466;-62
2023/11/11 11:05:42;;;;;;;3.50;2.40;;;;;;;25.74;38.44;99549.25;107597;1252;108938;-62
2023/11/11 11:08:25;;;;;;;2.80;2.30;;;;;;;25.19;39.42;99552.27;107532;1251;110207;-63
2023/11/11 11:11:21;;;;;;;6.90;2.30;;;;;;;24.51;38.65;99562.46;107522;1251;108115;-63
2023/11/11 11:13:55;;;;;;;6.20;2.60;;;;;;;23.56;39.18;99571.53;107532;1251;96482;-63
2023/11/11 11:16:30;;;;;;;5.90;2.50;;;;;;;22.86;40.01;99570.21;107552;1253;96666;-64
2023/11/11 11:18:59;;;;;;;5.20;2.40;;;;;;;22.38;40.51;99571.41;107483;1252;111018;-63
2023/11/11 11:21:28;;;;;;;6.80;2.50;;;;;;;22.50;41.11;99556.35;107588;1253;110188;-63
2023/11/11 11:23:57;;;;;;;6.10;2.80;;;;;;;22.86;41.68;99534.36;107477;1255;107318;-63